createdAt,value
2018-01-22T00:01:43.023Z,0.90
2018-01-22T00:04:11.296Z,0.90
2018-01-22T00:06:39.533Z,0.90
2018-01-22T00:09:09.096Z,0.90
2018-01-22T00:11:37.379Z,1.00
2018-01-22T00:14:05.643Z,1.10
2018-01-22T00:16:34.815Z,1.10
2018-01-22T00:19:02.995Z,1.10
2018-01-22T00:21:31.143Z,1.10
2018-01-22T00:23:59.288Z,1.10
2018-01-22T00:26:27.472Z,1.10
2018-01-22T00:28:55.668Z,1.10
2018-01-22T00:31:23.644Z,1.20
2018-01-22T00:33:51.786Z,1.10
2018-01-22T00:36:22.028Z,1.10
2018-01-22T00:38:51.690Z,1.10
2018-01-22T00:41:19.828Z,1.10
2018-01-22T00:43:47.904Z,1.10
2018-01-22T00:46:15.956Z,1.00
2018-01-22T00:48:44.281Z,1.10
2018-01-22T00:51:15.567Z,1.10
2018-01-22T00:53:43.981Z,1.10
2018-01-22T00:56:12.077Z,1.10
2018-01-22T00:58:40.158Z,1.00
2018-01-22T01:01:08.181Z,1.10
2018-01-22T01:03:36.500Z,1.10
2018-01-22T01:06:04.721Z,1.10
2018-01-22T01:08:33.878Z,1.00
2018-01-22T01:11:01.906Z,1.10
2018-01-22T01:13:30.019Z,1.10
2018-01-22T01:15:58.466Z,1.10
2018-01-22T01:18:26.579Z,1.20
2018-01-22T01:20:54.874Z,1.10
2018-01-22T01:23:23.150Z,1.10
2018-01-22T01:25:51.411Z,1.10
2018-01-22T01:28:19.605Z,1.10
2018-01-22T01:30:47.746Z,1.10
2018-01-22T01:33:16.489Z,1.10
2018-01-22T01:35:44.532Z,1.10
2018-01-22T01:38:12.788Z,1.10
2018-01-22T01:40:40.954Z,1.20
2018-01-22T01:43:08.985Z,1.20
2018-01-22T01:45:37.107Z,1.10
2018-01-22T01:48:05.264Z,1.10
2018-01-22T01:50:33.322Z,1.20
2018-01-22T01:53:01.475Z,1.10
2018-01-22T01:55:29.752Z,1.10
2018-01-22T01:57:57.742Z,1.10
2018-01-22T02:00:25.860Z,1.10
2018-01-22T02:02:54.045Z,1.10
2018-01-22T02:05:22.068Z,1.10
2018-01-22T02:07:58.786Z,1.10
2018-01-22T02:10:26.948Z,1.10
2018-01-22T02:12:54.969Z,1.10
2018-01-22T02:15:23.139Z,1.10
2018-01-22T02:17:51.971Z,1.10
2018-01-22T02:20:20.742Z,1.10
2018-01-22T02:22:49.057Z,1.10
2018-01-22T02:25:17.110Z,1.10
2018-01-22T02:27:45.994Z,1.10
2018-01-22T02:30:13.979Z,1.10
2018-01-22T02:32:42.738Z,1.20
2018-01-22T02:35:10.724Z,1.20
2018-01-22T02:37:39.032Z,1.10
2018-01-22T02:40:07.189Z,1.20
2018-01-22T02:42:36.113Z,1.10
2018-01-22T02:45:04.340Z,1.10
2018-01-22T02:47:32.404Z,1.20
2018-01-22T02:50:00.483Z,1.20
2018-01-22T02:52:28.796Z,1.20
2018-01-22T02:54:56.842Z,1.20
2018-01-22T02:57:25.099Z,1.20
2018-01-22T02:59:53.106Z,1.10
2018-01-22T03:02:21.190Z,1.20
2018-01-22T03:04:49.164Z,1.10
2018-01-22T03:07:20.211Z,1.10
2018-01-22T03:09:48.289Z,1.10
2018-01-22T03:12:16.370Z,1.10
2018-01-22T03:14:44.396Z,1.10
2018-01-22T03:17:12.555Z,1.20
2018-01-22T03:19:40.565Z,1.20
2018-01-22T03:22:08.578Z,1.20
2018-01-22T03:24:36.602Z,1.20
2018-01-22T03:27:04.569Z,1.20
2018-01-22T03:29:32.509Z,1.20
2018-01-22T03:32:00.446Z,1.20
2018-01-22T03:34:29.390Z,1.20
2018-01-22T03:36:57.555Z,1.20
2018-01-22T03:39:25.607Z,1.20
2018-01-22T03:41:53.544Z,1.20
2018-01-22T03:44:21.586Z,1.20
2018-01-22T03:46:49.572Z,1.30
2018-01-22T03:49:17.573Z,1.30
2018-01-22T03:51:45.522Z,1.20
2018-01-22T03:54:13.512Z,1.30
2018-01-22T03:56:41.445Z,1.30
2018-01-22T03:59:10.180Z,1.30
2018-01-22T04:01:38.128Z,1.20
2018-01-22T04:04:06.104Z,1.30
2018-01-22T04:06:34.964Z,1.30
2018-01-22T04:09:03.803Z,1.30
2018-01-22T04:11:31.782Z,1.30
2018-01-22T04:13:59.754Z,1.30
2018-01-22T04:16:27.693Z,1.30
2018-01-22T04:18:55.730Z,1.30
2018-01-22T04:21:23.667Z,1.30
2018-01-22T04:23:51.664Z,1.30
2018-01-22T04:26:19.698Z,1.30
2018-01-22T04:28:47.738Z,1.30
2018-01-22T04:31:15.644Z,1.30
2018-01-22T04:33:43.622Z,1.30
2018-01-22T04:36:11.599Z,1.20
2018-01-22T04:38:39.531Z,1.30
2018-01-22T04:41:07.589Z,1.30
2018-01-22T04:43:35.573Z,1.30
2018-01-22T04:46:03.553Z,1.30
2018-01-22T04:48:31.485Z,1.30
2018-01-22T04:50:59.478Z,1.30
2018-01-22T04:53:27.432Z,1.30
2018-01-22T04:55:56.240Z,1.30
2018-01-22T04:58:24.179Z,1.30
2018-01-22T05:00:52.168Z,1.30
2018-01-22T05:03:20.108Z,1.30
2018-01-22T05:05:48.237Z,1.30
2018-01-22T05:08:16.190Z,1.30
2018-01-22T05:10:44.244Z,1.20
2018-01-22T05:13:12.300Z,1.30
2018-01-22T05:15:40.324Z,1.30
2018-01-22T05:18:08.360Z,1.30
2018-01-22T05:20:36.486Z,1.30
2018-01-22T05:23:04.412Z,1.30
2018-01-22T05:25:32.371Z,1.30
2018-01-22T05:28:01.191Z,1.30
2018-01-22T05:30:29.240Z,1.30
2018-01-22T05:32:57.218Z,1.30
2018-01-22T05:35:25.209Z,1.40
2018-01-22T05:37:53.178Z,1.40
2018-01-22T05:40:21.325Z,1.40
2018-01-22T05:42:49.683Z,1.40
2018-01-22T05:45:17.633Z,1.30
2018-01-22T05:47:45.651Z,1.30
2018-01-22T05:50:14.364Z,1.30
2018-01-22T05:52:42.333Z,1.30
2018-01-22T05:55:10.258Z,1.40
2018-01-22T05:57:38.380Z,1.30
2018-01-22T06:00:06.389Z,1.40
2018-01-22T06:02:35.391Z,1.30
2018-01-22T06:05:03.396Z,1.30
2018-01-22T06:07:31.501Z,1.30
2018-01-22T06:09:59.566Z,1.40
2018-01-22T06:12:27.669Z,1.40
2018-01-22T06:14:55.611Z,1.40
2018-01-22T06:17:23.759Z,1.40
2018-01-22T06:19:51.888Z,1.50
2018-01-22T06:22:19.949Z,1.40
2018-01-22T06:24:47.929Z,1.40
2018-01-22T06:27:19.512Z,1.50
2018-01-22T06:29:47.550Z,1.50
2018-01-22T06:32:15.512Z,1.50
2018-01-22T06:34:43.433Z,1.50
2018-01-22T06:37:11.507Z,1.50
2018-01-22T06:39:39.420Z,1.50
2018-01-22T06:42:07.383Z,1.50
2018-01-22T06:44:35.356Z,1.50
2018-01-22T06:47:03.390Z,1.60
2018-01-22T06:49:31.351Z,1.60
2018-01-22T06:52:00.062Z,1.60
2018-01-22T06:54:28.079Z,1.60
2018-01-22T06:56:59.356Z,1.60
2018-01-22T06:59:28.131Z,1.60
2018-01-22T07:01:56.051Z,1.60
2018-01-22T07:04:24.006Z,1.70
2018-01-22T07:06:51.969Z,1.70
2018-01-22T07:09:19.908Z,1.70
2018-01-22T07:11:47.829Z,1.70
2018-01-22T07:14:15.815Z,1.80
2018-01-22T07:16:43.768Z,1.80
2018-01-22T07:19:11.760Z,1.80
2018-01-22T07:21:39.687Z,1.80
2018-01-22T07:24:07.690Z,1.80
2018-01-22T07:26:37.314Z,1.90
2018-01-22T07:29:05.315Z,1.80
2018-01-22T07:31:33.222Z,1.80
2018-01-22T07:34:01.201Z,1.90
2018-01-22T07:36:29.124Z,1.90
2018-01-22T07:38:57.072Z,1.90
2018-01-22T07:41:25.008Z,1.90
2018-01-22T07:43:52.965Z,1.90
2018-01-22T07:46:20.895Z,2.00
2018-01-22T07:48:48.891Z,2.00
2018-01-22T07:51:17.635Z,2.00
2018-01-22T07:53:45.642Z,2.00
2018-01-22T07:56:14.461Z,2.10
2018-01-22T07:58:42.454Z,2.10
2018-01-22T08:01:10.538Z,2.20
2018-01-22T08:03:38.472Z,2.10
2018-01-22T08:06:06.613Z,2.20
2018-01-22T08:08:36.572Z,2.20
2018-01-22T08:11:12.712Z,2.10
2018-01-22T08:13:40.828Z,2.20
2018-01-22T08:16:33.818Z,2.20
2018-01-22T08:19:10.063Z,2.20
2018-01-22T08:21:58.632Z,2.30
2018-01-22T08:36:28.133Z,2.40
2018-01-22T08:41:53.268Z,2.50
2018-01-22T08:47:05.513Z,2.50
2018-01-22T08:49:35.232Z,2.50
2018-01-22T08:52:03.245Z,2.50
2018-01-22T08:54:44.809Z,2.60
2018-01-22T08:57:12.931Z,2.60
2018-01-22T08:59:50.037Z,2.60
2018-01-22T09:02:26.403Z,2.60
2018-01-22T09:04:55.254Z,2.60
2018-01-22T09:13:24.811Z,2.70
2018-01-22T09:16:08.745Z,2.70
2018-01-22T09:18:48.823Z,2.70
2018-01-22T09:34:27.429Z,3.00
2018-01-22T09:37:01.152Z,3.10
2018-01-22T09:51:13.797Z,3.60
2018-01-22T09:53:42.227Z,3.60
2018-01-22T09:56:17.043Z,3.60
2018-01-22T10:01:40.797Z,3.80
2018-01-22T10:04:08.977Z,3.80
2018-01-22T10:06:46.913Z,4.00
2018-01-22T10:17:59.509Z,4.40
2018-01-22T10:37:49.598Z,4.50
2018-01-22T10:40:17.721Z,4.50
2018-01-22T10:42:45.858Z,4.60
2018-01-22T10:45:14.140Z,4.70
2018-01-22T10:47:42.322Z,4.80
2018-01-22T10:50:10.665Z,4.90
2018-01-22T10:52:39.045Z,5.00
2018-01-22T10:55:07.302Z,5.20
2018-01-22T10:57:41.384Z,5.40
2018-01-22T11:00:09.832Z,5.60
2018-01-22T11:02:38.158Z,5.60
2018-01-22T11:05:06.633Z,5.70
2018-01-22T11:07:37.067Z,5.70
2018-01-22T11:10:05.513Z,5.70
2018-01-22T11:12:33.912Z,5.70
2018-01-22T11:15:03.130Z,5.90
2018-01-22T11:17:35.367Z,5.80
2018-01-22T11:20:03.682Z,5.80
2018-01-22T11:22:32.232Z,5.90
2018-01-22T11:25:02.086Z,5.90
2018-01-22T11:27:30.439Z,6.00
2018-01-22T11:29:59.449Z,6.40
2018-01-22T11:32:27.603Z,6.30
2018-01-22T11:34:55.899Z,6.40
2018-01-22T11:37:24.080Z,6.60
2018-01-22T11:39:52.261Z,6.80
2018-01-22T11:42:20.391Z,7.00
2018-01-22T11:44:51.227Z,7.20
2018-01-22T11:47:19.368Z,7.20
2018-01-22T11:49:47.569Z,7.30
2018-01-22T11:52:15.696Z,7.30
2018-01-22T11:54:43.835Z,7.10
2018-01-22T11:57:11.883Z,7.00
2018-01-22T11:59:40.111Z,6.90
2018-01-22T12:02:08.216Z,6.90
2018-01-22T12:04:36.423Z,7.00
2018-01-22T12:07:12.758Z,7.30
2018-01-22T12:09:40.939Z,7.40
2018-01-22T12:12:09.116Z,7.50
2018-01-22T12:14:37.252Z,7.60
2018-01-22T12:17:05.381Z,7.60
2018-01-22T12:19:33.420Z,7.60
2018-01-22T12:22:01.552Z,7.60
2018-01-22T12:24:29.840Z,7.60
2018-01-22T12:26:57.921Z,7.60
2018-01-22T12:29:26.128Z,7.70
2018-01-22T12:31:54.426Z,7.70
2018-01-22T12:34:22.512Z,7.60
2018-01-22T12:36:55.243Z,7.60
2018-01-22T12:39:23.286Z,7.60
2018-01-22T12:41:51.419Z,7.60
2018-01-22T12:44:19.426Z,7.70
2018-01-22T12:46:47.529Z,7.60
2018-01-22T12:49:15.567Z,7.60
2018-01-22T12:51:43.666Z,7.50
2018-01-22T12:54:11.838Z,7.50
2018-01-22T12:56:39.910Z,7.50
2018-01-22T12:59:07.960Z,7.60
2018-01-22T13:01:36.776Z,7.60
2018-01-22T13:04:04.800Z,7.50
2018-01-22T13:06:32.945Z,7.50
2018-01-22T13:09:01.078Z,7.40
2018-01-22T13:11:29.661Z,7.40
2018-01-22T13:13:57.798Z,7.40
2018-01-22T13:16:26.160Z,7.40
2018-01-22T13:18:55.035Z,7.40
2018-01-22T13:21:23.261Z,7.40
2018-01-22T13:23:53.167Z,7.30
2018-01-22T13:26:21.393Z,7.30
2018-01-22T13:28:49.598Z,7.20
2018-01-22T13:31:17.659Z,7.10
2018-01-22T13:33:45.821Z,7.00
2018-01-22T13:36:14.643Z,6.90
2018-01-22T13:38:42.880Z,6.90
2018-01-22T13:41:12.845Z,6.80
2018-01-22T13:43:41.770Z,6.80
2018-01-22T13:46:09.913Z,6.80
2018-01-22T13:48:38.185Z,6.80
2018-01-22T13:51:06.307Z,6.80
2018-01-22T13:53:34.414Z,6.80
2018-01-22T13:56:02.850Z,6.70
2018-01-22T13:58:31.023Z,6.70
2018-01-22T14:00:59.392Z,6.80
2018-01-22T14:03:27.578Z,6.70
2018-01-22T14:05:55.723Z,6.80
2018-01-22T14:08:24.205Z,6.80
2018-01-22T14:10:52.518Z,6.80
2018-01-22T14:13:21.070Z,6.80
2018-01-22T14:15:49.148Z,6.90
2018-01-22T14:18:17.314Z,6.90
2018-01-22T14:20:46.205Z,7.00
2018-01-22T14:23:14.476Z,7.00
2018-01-22T14:25:43.080Z,7.00
2018-01-22T14:28:11.491Z,7.10
2018-01-22T14:30:39.948Z,7.10
2018-01-22T14:33:08.074Z,7.10
2018-01-22T14:41:20.003Z,7.20
2018-01-22T14:46:46.434Z,7.10
2018-01-22T15:07:57.564Z,6.90
2018-01-22T15:13:37.920Z,6.80
2018-01-22T15:19:20.164Z,6.80
2018-01-22T15:27:39.850Z,6.80
2018-01-22T15:30:12.407Z,6.70
2018-01-22T15:32:40.752Z,6.70
2018-01-22T15:50:27.595Z,6.30
2018-01-22T15:55:32.345Z,6.20
2018-01-22T15:58:05.312Z,6.20
2018-01-22T16:00:33.748Z,6.10
2018-01-22T16:03:03.216Z,6.00
2018-01-22T16:05:36.515Z,6.00
2018-01-22T16:11:06.754Z,5.90
2018-01-22T16:13:41.847Z,5.80
2018-01-22T16:16:15.856Z,5.80
2018-01-22T16:18:44.351Z,5.80
2018-01-22T16:21:22.507Z,5.70
2018-01-22T16:23:53.520Z,5.70
2018-01-22T16:26:25.368Z,5.70
2018-01-22T16:28:53.610Z,5.70
2018-01-22T16:31:21.753Z,5.70
2018-01-22T16:33:59.457Z,5.60
2018-01-22T16:36:30.193Z,5.60
2018-01-22T16:39:00.621Z,5.60
2018-01-22T16:41:28.773Z,5.70
2018-01-22T16:43:57.789Z,5.70
2018-01-22T16:46:26.074Z,5.70
2018-01-22T16:48:54.405Z,5.70
2018-01-22T16:51:22.576Z,5.70
2018-01-22T16:53:50.894Z,5.70
2018-01-22T16:56:34.627Z,5.70
2018-01-22T16:59:02.776Z,5.70
2018-01-22T17:01:32.001Z,5.70
2018-01-22T17:04:13.110Z,5.70
2018-01-22T17:06:42.801Z,5.60
2018-01-22T17:09:11.239Z,5.60
2018-01-22T17:11:52.782Z,5.70
2018-01-22T17:14:21.897Z,5.70
2018-01-22T17:16:52.403Z,5.70
2018-01-22T17:19:20.670Z,5.70
2018-01-22T17:21:55.594Z,5.80
2018-01-22T17:24:23.743Z,5.80
2018-01-22T17:26:51.723Z,5.90
2018-01-22T17:29:19.839Z,5.80
2018-01-22T17:31:48.096Z,5.80
2018-01-22T17:34:17.003Z,5.80
2018-01-22T17:36:45.265Z,5.70
2018-01-22T17:39:13.748Z,5.70
2018-01-22T17:41:41.740Z,5.70
2018-01-22T17:44:09.886Z,5.70
2018-01-22T17:46:41.882Z,5.70
2018-01-22T17:49:10.636Z,5.60
2018-01-22T17:51:38.885Z,5.60
2018-01-22T17:54:06.977Z,5.60
2018-01-22T17:56:34.976Z,5.60
2018-01-22T17:59:03.020Z,5.60
2018-01-22T18:01:38.206Z,5.60
2018-01-22T18:04:06.967Z,5.60
2018-01-22T18:06:35.119Z,5.60
2018-01-22T18:09:03.198Z,5.60
2018-01-22T18:11:31.270Z,5.60
2018-01-22T18:13:59.319Z,5.60
2018-01-22T18:16:29.510Z,5.50
2018-01-22T18:18:57.495Z,5.50
2018-01-22T18:21:25.511Z,5.50
2018-01-22T18:23:53.661Z,5.50
2018-01-22T18:26:21.701Z,5.50
2018-01-22T18:28:52.203Z,5.60
2018-01-22T18:31:20.400Z,5.60
2018-01-22T18:33:48.354Z,5.70
2018-01-22T18:36:16.673Z,5.60
2018-01-22T18:38:44.778Z,5.60
2018-01-22T18:41:12.800Z,5.60
2018-01-22T18:43:41.600Z,5.50
2018-01-22T18:46:09.662Z,5.50
2018-01-22T18:48:38.429Z,5.50
2018-01-22T18:51:06.558Z,5.40
2018-01-22T18:53:34.575Z,5.40
2018-01-22T18:56:02.647Z,5.40
2018-01-22T18:58:31.596Z,5.50
2018-01-22T19:00:59.797Z,5.50
2018-01-22T19:03:27.820Z,5.70
2018-01-22T19:05:55.836Z,5.70
2018-01-22T19:08:23.918Z,5.70
2018-01-22T19:10:52.457Z,5.70
2018-01-22T19:13:20.454Z,5.80
2018-01-22T19:15:48.479Z,5.80
2018-01-22T19:18:16.607Z,5.70
2018-01-22T19:20:45.299Z,5.70
2018-01-22T19:23:13.444Z,5.80
2018-01-22T19:25:42.364Z,5.70
2018-01-22T19:28:10.466Z,5.70
2018-01-22T19:30:39.283Z,5.90
2018-01-22T19:33:09.875Z,5.90
2018-01-22T19:35:37.948Z,5.80
2018-01-22T19:38:06.697Z,5.80
2018-01-22T19:40:34.726Z,5.80
2018-01-22T19:43:02.757Z,5.80
2018-01-22T19:45:30.934Z,5.80
2018-01-22T19:47:59.087Z,5.70
2018-01-22T19:50:27.226Z,5.70
2018-01-22T19:52:55.268Z,5.70
2018-01-22T19:55:23.335Z,5.80
2018-01-22T19:57:51.611Z,5.80
2018-01-22T20:00:20.530Z,5.70
2018-01-22T20:02:49.434Z,5.70
2018-01-22T20:05:17.464Z,5.70
2018-01-22T20:07:45.543Z,5.60
2018-01-22T20:10:13.554Z,5.70
2018-01-22T20:12:41.663Z,5.70
2018-01-22T20:15:13.228Z,5.80
2018-01-22T20:17:41.311Z,5.80
2018-01-22T20:20:09.380Z,5.80
2018-01-22T20:22:37.428Z,5.80
2018-01-22T20:25:05.465Z,5.90
2018-01-22T20:27:33.680Z,5.90
2018-01-22T20:30:01.760Z,5.90
2018-01-22T20:32:30.452Z,5.90
2018-01-22T20:34:58.383Z,6.00
2018-01-22T20:37:26.774Z,6.00
2018-01-22T20:39:54.733Z,6.00
2018-01-22T20:42:22.734Z,6.00
2018-01-22T20:44:50.790Z,6.00
2018-01-22T20:47:18.914Z,6.00
2018-01-22T20:49:46.936Z,6.00
2018-01-22T20:52:14.922Z,6.00
2018-01-22T20:54:44.610Z,6.10
2018-01-22T20:57:12.573Z,6.00
2018-01-22T20:59:40.980Z,6.00
2018-01-22T21:02:09.025Z,5.90
2018-01-22T21:04:37.059Z,5.90
2018-01-22T21:07:08.729Z,5.90
2018-01-22T21:09:36.741Z,5.90
2018-01-22T21:12:04.725Z,5.90
2018-01-22T21:14:32.835Z,5.90
2018-01-22T21:17:01.608Z,5.90
2018-01-22T21:19:29.676Z,6.00
2018-01-22T21:21:57.636Z,5.90
2018-01-22T21:24:30.755Z,5.90
2018-01-22T21:27:02.214Z,5.90
2018-01-22T21:29:33.956Z,5.90
2018-01-22T21:32:06.306Z,5.90
2018-01-22T21:34:37.226Z,5.90
2018-01-22T21:37:08.640Z,5.90
2018-01-22T21:39:40.970Z,6.00
2018-01-22T21:42:13.226Z,6.00
2018-01-22T21:44:47.158Z,6.00
2018-01-22T21:47:18.469Z,6.00
2018-01-22T21:49:50.021Z,6.00
2018-01-22T21:52:20.791Z,6.00
2018-01-22T21:54:52.144Z,6.00
2018-01-22T21:57:23.431Z,6.00
2018-01-22T21:59:53.969Z,6.00
2018-01-22T22:02:25.416Z,6.00
2018-01-22T22:04:58.359Z,5.90
2018-01-22T22:07:29.105Z,5.90
2018-01-22T22:10:01.210Z,5.80
2018-01-22T22:12:32.603Z,5.80
2018-01-22T22:15:03.955Z,5.80
2018-01-22T22:17:33.783Z,5.80
2018-01-22T22:20:05.256Z,5.80
2018-01-22T22:22:36.864Z,5.80
2018-01-22T22:25:05.043Z,5.80
2018-01-22T22:27:33.073Z,5.80
2018-01-22T22:30:01.077Z,5.70
2018-01-22T22:32:29.191Z,5.70
2018-01-22T22:34:57.186Z,5.80
2018-01-22T22:37:25.487Z,5.70
2018-01-22T22:39:53.513Z,5.80
2018-01-22T22:42:21.522Z,5.70
2018-01-22T22:44:49.469Z,5.80
2018-01-22T22:47:17.738Z,5.70
2018-01-22T22:49:45.767Z,5.70
2018-01-22T22:52:13.805Z,5.70
2018-01-22T22:54:44.429Z,5.70
2018-01-22T22:57:12.476Z,5.70
2018-01-22T22:59:40.590Z,5.70
2018-01-22T23:02:08.760Z,5.60
2018-01-22T23:04:37.541Z,5.70
2018-01-22T23:07:05.548Z,5.70
2018-01-22T23:09:33.484Z,5.70
2018-01-22T23:12:02.267Z,5.70
2018-01-22T23:14:30.241Z,5.70
2018-01-22T23:16:58.973Z,5.70
2018-01-22T23:19:27.134Z,5.70
2018-01-22T23:21:55.883Z,5.70
2018-01-22T23:24:24.106Z,5.60
2018-01-22T23:26:52.337Z,5.60
2018-01-22T23:29:20.461Z,5.50
2018-01-22T23:31:49.223Z,5.40
2018-01-22T23:34:17.268Z,5.40
2018-01-22T23:36:46.173Z,5.40
2018-01-22T23:39:14.186Z,5.30
2018-01-22T23:41:42.153Z,5.30
2018-01-22T23:44:10.178Z,5.30
2018-01-22T23:46:40.171Z,5.20
2018-01-22T23:49:08.187Z,5.20
2018-01-22T23:51:36.925Z,5.20
2018-01-22T23:54:04.989Z,5.20
2018-01-22T23:56:32.985Z,5.30
2018-01-22T23:59:00.999Z,5.20
